DLH542 EDDF-SKBO
Flight info
| Callsign | DLH542 |
|---|---|
| Flight time | N/A |
| Altitude | 34000 |
| Route | SOBRA7D SOBRA Y180 DIK UN857 TOLVU/N0464F350 DCT RAPOR DCT GIMER DCT ESTOC UT300 ELCOB/N0457F340 UT300 SENLO UN502 JSY DCT LIZAD DCT GAPLI/M080F360 DCT SOMAX DCT 49N020W 45N030W 39N040W/M080F380 31N050W 27N053W 24N055W DCT BNJEE/N0459F400 DCT PPR DCT ITEGO UP533 PBL DCT KIKAS DCT DOPLO DOPLO5E |
| Aircraft | A343/H-SDE2E3FGHIJ4J5M1RWXY/LB1D1 |
Departure
| Time | N/A |
|---|---|
| Airport | Frankfurt Main Airport (EDDF) |
Arrival
| Time | 2026-05-05 19:16 |
|---|---|
| Airport | El Dorado International Airport (SKBO) |
| Time | Latitude | Longitude | Altitude | Speed | Heading |
|---|---|---|---|---|---|
| 2026-05-05 18:55 | 5.87373 | -73.42566 | 36183 ft | 473 kts | 232° |
| 2026-05-05 18:56 | 5.85314 | -73.45144 | 35571 ft | 475 kts | 230° |
| 2026-05-05 18:56 | 5.82957 | -73.47482 | 34891 ft | 478 kts | 219° |
| 2026-05-05 18:56 | 5.80309 | -73.49537 | 34193 ft | 483 kts | 216° |
| 2026-05-05 18:56 | 5.77628 | -73.51518 | 33404 ft | 487 kts | 216° |
| 2026-05-05 18:57 | 5.74892 | -73.53534 | 32671 ft | 489 kts | 216° |
| 2026-05-05 18:57 | 5.72139 | -73.55567 | 31920 ft | 491 kts | 216° |
| 2026-05-05 18:57 | 5.69389 | -73.57602 | 31375 ft | 490 kts | 216° |
| 2026-05-05 18:57 | 5.66651 | -73.59629 | 30872 ft | 487 kts | 217° |
| 2026-05-05 18:58 | 5.63928 | -73.61646 | 30340 ft | 484 kts | 216° |
| 2026-05-05 18:58 | 5.61231 | -73.63644 | 29775 ft | 481 kts | 216° |
| 2026-05-05 18:58 | 5.58544 | -73.65634 | 29205 ft | 478 kts | 216° |
| 2026-05-05 18:58 | 5.55877 | -73.67610 | 28671 ft | 474 kts | 216° |
| 2026-05-05 18:59 | 5.53235 | -73.69567 | 28167 ft | 470 kts | 216° |
| 2026-05-05 18:59 | 5.50640 | -73.71489 | 27643 ft | 467 kts | 216° |
| 2026-05-05 18:59 | 5.48033 | -73.73419 | 27127 ft | 463 kts | 216° |
| 2026-05-05 18:59 | 5.45444 | -73.75339 | 26595 ft | 460 kts | 216° |
| 2026-05-05 19:00 | 5.43024 | -73.77438 | 26051 ft | 459 kts | 227° |
| 2026-05-05 19:00 | 5.41190 | -73.80046 | 25430 ft | 459 kts | 244° |
| 2026-05-05 19:00 | 5.40000 | -73.83019 | 24847 ft | 457 kts | 252° |
| 2026-05-05 19:00 | 5.39319 | -73.85017 | 24431 ft | 457 kts | 252° |
| 2026-05-05 19:01 | 5.38313 | -73.88018 | 23764 ft | 449 kts | 252° |
| 2026-05-05 19:01 | 5.37034 | -73.91812 | 23259 ft | 414 kts | 252° |
| 2026-05-05 19:01 | 5.36421 | -73.93615 | 23128 ft | 395 kts | 252° |
| 2026-05-05 19:01 | 5.35284 | -73.96945 | 22816 ft | 372 kts | 252° |
| 2026-05-05 19:02 | 5.34727 | -73.98575 | 22529 ft | 375 kts | 251° |
| 2026-05-05 19:02 | 5.33880 | -74.01058 | 22106 ft | 375 kts | 251° |
| 2026-05-05 19:02 | 5.33036 | -74.03531 | 21701 ft | 375 kts | 251° |
| 2026-05-05 19:02 | 5.32187 | -74.06011 | 21300 ft | 375 kts | 251° |
| 2026-05-05 19:03 | 5.31338 | -74.08491 | 20859 ft | 376 kts | 251° |
| 2026-05-05 19:03 | 5.30486 | -74.10977 | 20454 ft | 377 kts | 251° |
| 2026-05-05 19:03 | 5.29634 | -74.13468 | 20040 ft | 378 kts | 251° |
| 2026-05-05 19:03 | 5.28780 | -74.15961 | 19630 ft | 379 kts | 251° |
| 2026-05-05 19:04 | 5.27924 | -74.18465 | 19217 ft | 379 kts | 251° |
| 2026-05-05 19:04 | 5.27067 | -74.20966 | 18948 ft | 376 kts | 251° |
| 2026-05-05 19:04 | 5.26229 | -74.23410 | 18773 ft | 366 kts | 251° |
| 2026-05-05 19:04 | 5.25408 | -74.25799 | 18652 ft | 358 kts | 251° |
| 2026-05-05 19:05 | 5.24598 | -74.28143 | 18482 ft | 354 kts | 250° |
| 2026-05-05 19:05 | 5.23490 | -74.30347 | 18214 ft | 353 kts | 233° |
| 2026-05-05 19:05 | 5.21779 | -74.32019 | 17756 ft | 345 kts | 212° |
| 2026-05-05 19:05 | 5.19644 | -74.33008 | 17183 ft | 334 kts | 196° |
| 2026-05-05 19:06 | 5.17418 | -74.33690 | 16821 ft | 335 kts | 194° |
| 2026-05-05 19:06 | 5.15197 | -74.34343 | 16444 ft | 328 kts | 194° |
| 2026-05-05 19:06 | 5.13651 | -74.34802 | 15892 ft | 323 kts | 194° |
| 2026-05-05 19:07 | 5.13292 | -74.34910 | 15782 ft | 323 kts | 194° |
| 2026-05-05 19:07 | 5.11153 | -74.35555 | 15131 ft | 315 kts | 194° |
| 2026-05-05 19:07 | 5.09108 | -74.36177 | 14789 ft | 300 kts | 194° |
| 2026-05-05 19:07 | 5.07163 | -74.36768 | 14569 ft | 292 kts | 193° |
| 2026-05-05 19:08 | 5.05219 | -74.37355 | 14319 ft | 291 kts | 193° |
| 2026-05-05 19:08 | 5.03292 | -74.37943 | 14105 ft | 289 kts | 193° |
| 2026-05-05 19:08 | 5.01379 | -74.38526 | 14018 ft | 284 kts | 194° |
| 2026-05-05 19:08 | 4.99506 | -74.39101 | 14011 ft | 278 kts | 194° |
| 2026-05-05 19:09 | 4.97671 | -74.39661 | 13960 ft | 273 kts | 194° |
| 2026-05-05 19:09 | 4.95864 | -74.40211 | 13831 ft | 270 kts | 194° |
| 2026-05-05 19:09 | 4.94071 | -74.40757 | 13640 ft | 268 kts | 193° |
| 2026-05-05 19:09 | 4.92870 | -74.41103 | 13470 ft | 266 kts | 189° |
| 2026-05-05 19:10 | 4.92334 | -74.41199 | 13375 ft | 264 kts | 182° |
| 2026-05-05 19:10 | 4.90578 | -74.40917 | 13148 ft | 255 kts | 150° |
| 2026-05-05 19:10 | 4.89114 | -74.39941 | 12914 ft | 252 kts | 141° |
| 2026-05-05 19:11 | 4.87811 | -74.38773 | 12726 ft | 250 kts | 133° |
| 2026-05-05 19:11 | 4.86664 | -74.37463 | 12653 ft | 249 kts | 129° |
| 2026-05-05 19:11 | 4.85604 | -74.36096 | 12533 ft | 248 kts | 127° |
| 2026-05-05 19:11 | 4.84576 | -74.34738 | 12431 ft | 247 kts | 127° |
| 2026-05-05 19:12 | 4.83533 | -74.33369 | 12198 ft | 246 kts | 127° |
| 2026-05-05 19:12 | 4.82487 | -74.32001 | 11910 ft | 250 kts | 127° |
| 2026-05-05 19:12 | 4.81431 | -74.30610 | 11571 ft | 249 kts | 127° |
| 2026-05-05 19:12 | 4.80403 | -74.29241 | 11261 ft | 241 kts | 126° |
| 2026-05-05 19:13 | 4.79421 | -74.27937 | 10992 ft | 228 kts | 127° |
| 2026-05-05 19:13 | 4.78489 | -74.26715 | 10779 ft | 214 kts | 127° |
| 2026-05-05 19:13 | 4.77596 | -74.25541 | 10511 ft | 209 kts | 127° |
| 2026-05-05 19:13 | 4.76735 | -74.24402 | 10261 ft | 200 kts | 126° |
| 2026-05-05 19:14 | 4.75917 | -74.23326 | 10024 ft | 187 kts | 126° |
| 2026-05-05 19:14 | 4.75151 | -74.22317 | 9802 ft | 176 kts | 126° |
| 2026-05-05 19:14 | 4.74434 | -74.21372 | 9618 ft | 165 kts | 126° |
| 2026-05-05 19:14 | 4.73758 | -74.20482 | 9412 ft | 158 kts | 127° |
| 2026-05-05 19:15 | 4.73099 | -74.19601 | 9188 ft | 157 kts | 127° |
| 2026-05-05 19:15 | 4.72440 | -74.18728 | 8922 ft | 158 kts | 130° |
| 2026-05-05 19:15 | 4.71772 | -74.17860 | 8686 ft | 159 kts | 126° |
| 2026-05-05 19:15 | 4.71107 | -74.16985 | 8424 ft | 156 kts | 126° |
| 2026-05-05 19:16 | 4.70525 | -74.16220 | 8371 ft | 102 kts | 127° |
| 2026-05-05 19:16 | 4.70231 | -74.15832 | 8368 ft | 55 kts | 127° |
| 2026-05-05 19:16 | 4.70048 | -74.15589 | 8368 ft | 17 kts | 126° |
| 2026-05-05 19:16 | 4.70065 | -74.15512 | 8368 ft | 11 kts | 39° |
| 2026-05-05 19:17 | 4.70122 | -74.15472 | 8369 ft | 9 kts | 34° |
| 2026-05-05 19:17 | 4.70144 | -74.15457 | 8369 ft | 3 kts | 34° |
| 2026-05-05 19:17 | 4.70166 | -74.15437 | 8370 ft | 6 kts | 53° |
| 2026-05-05 19:17 | 4.70156 | -74.15375 | 8370 ft | 12 kts | 120° |
| 2026-05-05 19:18 | 4.70110 | -74.15310 | 8370 ft | 11 kts | 125° |
| 2026-05-05 19:18 | 4.70068 | -74.15250 | 8371 ft | 10 kts | 128° |
| 2026-05-05 19:18 | 4.70020 | -74.15188 | 8370 ft | 15 kts | 126° |
| 2026-05-05 19:18 | 4.69960 | -74.15104 | 8370 ft | 14 kts | 130° |
| 2026-05-05 19:19 | 4.69899 | -74.15032 | 8370 ft | 13 kts | 128° |
| 2026-05-05 19:19 | 4.69846 | -74.14964 | 8370 ft | 12 kts | 126° |
| 2026-05-05 19:19 | 4.69808 | -74.14896 | 8370 ft | 10 kts | 98° |
| 2026-05-05 19:19 | 4.69853 | -74.14832 | 8370 ft | 15 kts | 34° |
| 2026-05-05 19:20 | 4.69938 | -74.14772 | 8370 ft | 15 kts | 36° |
| 2026-05-05 19:20 | 4.70016 | -74.14715 | 8370 ft | 13 kts | 36° |
| 2026-05-05 19:20 | 4.70085 | -74.14661 | 8371 ft | 12 kts | 38° |
| 2026-05-05 19:20 | 4.70144 | -74.14615 | 8371 ft | 10 kts | 36° |
| 2026-05-05 19:21 | 4.70198 | -74.14575 | 8371 ft | 10 kts | 37° |
| 2026-05-05 19:21 | 4.70247 | -74.14538 | 8371 ft | 8 kts | 37° |
| 2026-05-05 19:21 | 4.70313 | -74.14488 | 8371 ft | 14 kts | 37° |
| 2026-05-05 19:21 | 4.70386 | -74.14430 | 8371 ft | 12 kts | 50° |
| 2026-05-05 19:22 | 4.70378 | -74.14381 | 8371 ft | 8 kts | 119° |
| 2026-05-05 19:22 | 4.70332 | -74.14316 | 8371 ft | 12 kts | 128° |
| 2026-05-05 19:22 | 4.70289 | -74.14261 | 8370 ft | 9 kts | 128° |
| 2026-05-05 19:22 | 4.70255 | -74.14220 | 8370 ft | 9 kts | 136° |
| 2026-05-05 19:23 | 4.70183 | -74.14206 | 8370 ft | 12 kts | 170° |
| 2026-05-05 19:23 | 4.70120 | -74.14156 | 8371 ft | 11 kts | 127° |
| 2026-05-05 19:23 | 4.70081 | -74.14105 | 8370 ft | 8 kts | 127° |
| 2026-05-05 19:23 | 4.70052 | -74.14084 | 8370 ft | 1 kts | 176° |
| 2026-05-05 19:24 | 4.70028 | -74.14092 | 8370 ft | 7 kts | 205° |
| 2026-05-05 19:24 | 4.69993 | -74.14114 | 8370 ft | 0 kts | 215° |
| 2026-05-05 19:24 | 4.69987 | -74.14119 | 8370 ft | 0 kts | 215° |